Arletta, Washington
Current Conditions -  °F | °C
As of 7:53 AM on Sunday 23 Nov 2014 (Local Time) from KTIW Reporting Station
Moderate Rain Moderate Rain  
Wind Chill: 41°   Ceiling: 2500
Heat Index: 47°   Visibility: 2mi
Dew Point: 45°   Wind: 15mph
Humidity: 93%   Direction: 190°S
Pressure: 30.11"   Gusts: NA
Location:  47.2986°N, 122.616°W
Report Text: KTIW 231553Z 19013KT 2SM RA BR BKN025 OVC034 08/07 A3011 RMK AO2 PK WND 19028/1501 LTG DSNT W RAB1454 SLP197 P0021 T00830072
Loading
Personal Weather Stations






























Interactive Weather Map New forecast layout! Learn more

10-Day Weather Forecast

Advertisements
Track Severe Weather on mobile